Aérodrome :
LOGIN :

S'inscrire | Disclaimer

   EN    FR    IT 

 










Légende :    VFR   VFR Marginal   IFR   IFR Intensif   IFR Très Intensif
Visi : 
Plafond : 
>= 8 km
>= 3000ft
5 à 8 km
1000 à 3000 ft
1500m à 5 km
500 à 1000 ft
800 à 1500m
200 à 500 ft
< 800m
< 200 ft
Symboles :   Orages  Brouillard  Fortes neiges  Fortes précipitations  Vent > 20 kt
SIGMETs :   Divers  Orages  Givrage  Turbulence  Onde Orograph.  Cendres Volcan.







- Altitude de l'aérodrome : 132 ft


EGXE - RAF Leeming

DERNIER METAR :
  • 250550Z 30009KT CAVOK 01/M03 Q1012 BLU

METARs EXPIRÉS :
  • 250450Z AUTO 30009KT 9999 NCD M00/M03 Q1012
  • 250350Z AUTO 32009KT 9999 NCD M00/M03 Q1012

TAF TAF EGXE
Valide du 25 à 06h jusqu'au 25 à 15h UTC


250536Z 2506/2515 31013KT 9999 FEW040
BECMG 2509/2511 34015G25KT
PROB40
TEMPO 2510/2515 35020G35KT 6000 SHRASN
PROB30
TEMPO 2510/2515 2000 SHSN SHGS SCT024CB
Pas de NOTAMs connus pour ce terrain.



MET'MAP, la Météo Aéronautique d'un coup d'oeil ! - Copyright ORBIFLY Décembre 2007 - Disclaimer

ORBIFLY MET'MAP TEAM :

Programmation & Développement : Alexandra Zaïnal
Conception & Développement : Baudouin d'Aumeries
Co-Programmation & Développement : Marc-Olivier Méhu
Soutien technique & logistique : Manuel Goepfert

Contact : metmap@orbifly.com




SOURCES & CREDITS :

   NOAA